Time;durP1;ratioP1;P1;durP2;ratioP2;P2;SDS_P1;SDS_P2;PMS_P1;PMS_P2;Temp;Humidity;BMP_temperature;BMP_pressure;BME280_temperature;BME280_humidity;BME280_pressure;Samples;Min_cycle;Max_cycle;Signal;HPM_P1;HPM_P2
2021/09/14 00:02:02;;;;;;;5.93;4.13;;;15.80;99.90;;;;;;4183567;28;20233;-76
2021/09/14 00:04:04;;;;;;;5.90;4.07;;;15.80;99.90;;;;;;4180445;28;20266;-78
2021/09/14 00:06:06;;;;;;;6.10;4.40;;;15.80;99.90;;;;;;4177341;28;20214;-76
2021/09/14 00:08:07;;;;;;;5.30;4.10;;;15.80;99.90;;;;;;4181083;28;20221;-78
2021/09/14 00:10:10;;;;;;;5.90;4.13;;;15.70;99.90;;;;;;4181339;28;20210;-78
2021/09/14 00:12:11;;;;;;;6.43;4.17;;;15.70;99.90;;;;;;4179945;28;20754;-76
2021/09/14 00:14:13;;;;;;;8.17;4.30;;;15.70;99.90;;;;;;4174115;28;20219;-78
2021/09/14 00:16:15;;;;;;;7.00;4.40;;;15.70;99.90;;;;;;4183398;28;20212;-78
2021/09/14 00:18:18;;;;;;;5.80;4.37;;;15.70;99.90;;;;;;4181921;28;20659;-78
2021/09/14 00:20:20;;;;;;;5.03;4.30;;;15.60;99.90;;;;;;4179416;28;20585;-77
2021/09/14 00:22:22;;;;;;;6.27;4.10;;;15.60;99.90;;;;;;4178124;28;20238;-77
2021/09/14 00:24:23;;;;;;;6.60;4.30;;;15.60;99.90;;;;;;4178382;28;20277;-77
2021/09/14 00:26:25;;;;;;;7.03;4.17;;;15.50;99.90;;;;;;4181326;28;20264;-78
2021/09/14 00:28:27;;;;;;;5.53;4.30;;;15.50;99.90;;;;;;4181320;28;20260;-77
2021/09/14 00:30:28;;;;;;;8.33;4.53;;;15.50;99.90;;;;;;4178622;28;20213;-77
2021/09/14 00:32:30;;;;;;;6.43;4.70;;;15.50;99.90;;;;;;4185826;28;20688;-77
2021/09/14 00:34:33;;;;;;;5.40;3.97;;;15.50;99.90;;;;;;4187921;28;20761;-77
2021/09/14 00:36:35;;;;;;;7.03;4.57;;;15.40;99.90;;;;;;4195426;28;20223;-75
2021/09/14 00:38:36;;;;;;;7.30;4.20;;;15.50;99.90;;;;;;4185449;28;20248;-77
2021/09/14 00:40:38;;;;;;;11.00;4.67;;;15.40;99.90;;;;;;4183861;28;20275;-78
2021/09/14 00:42:40;;;;;;;7.17;4.40;;;15.40;99.90;;;;;;4182738;28;20293;-78
2021/09/14 00:44:42;;;;;;;5.77;4.57;;;15.30;99.90;;;;;;4180049;28;20214;-78
2021/09/14 00:46:43;;;;;;;7.17;4.97;;;15.30;99.90;;;;;;4178857;28;20423;-77
2021/09/14 00:48:45;;;;;;;5.60;4.20;;;15.40;99.90;;;;;;4180001;28;20742;-77
2021/09/14 00:50:48;;;;;;;5.90;4.53;;;15.30;99.90;;;;;;4186639;28;20213;-77
2021/09/14 00:52:51;;;;;;;7.50;4.37;;;15.30;99.90;;;;;;4176803;28;20204;-78
2021/09/14 00:54:53;;;;;;;7.60;5.17;;;15.30;99.90;;;;;;4187203;28;20255;-77
2021/09/14 00:56:57;;;;;;;6.30;4.73;;;15.30;99.90;;;;;;4189868;28;20594;-77
2021/09/14 00:59:01;;;;;;;7.50;4.80;;;15.30;99.90;;;;;;4181258;28;20215;-77
2021/09/14 01:01:02;;;;;;;6.20;4.57;;;15.20;99.90;;;;;;4179232;28;20792;-75
2021/09/14 01:03:05;;;;;;;7.47;5.03;;;15.20;99.90;;;;;;4181256;28;20664;-77
2021/09/14 01:05:07;;;;;;;6.07;4.60;;;15.20;99.90;;;;;;4174478;28;20211;-77
2021/09/14 01:07:10;;;;;;;6.33;4.80;;;15.20;99.90;;;;;;4182375;28;20268;-77
2021/09/14 01:09:13;;;;;;;6.63;4.80;;;15.10;99.90;;;;;;4181063;28;20268;-78
2021/09/14 01:11:15;;;;;;;7.33;5.30;;;15.10;99.90;;;;;;4177771;28;20249;-76
2021/09/14 01:13:17;;;;;;;6.10;5.07;;;15.10;99.90;;;;;;4179284;28;20207;-77
2021/09/14 01:15:19;;;;;;;5.93;4.97;;;15.00;99.90;;;;;;4181328;28;20204;-77
2021/09/14 01:17:21;;;;;;;7.77;4.87;;;15.00;99.90;;;;;;4181443;28;20384;-77
2021/09/14 01:19:22;;;;;;;6.57;4.87;;;15.00;99.90;;;;;;4180982;28;20210;-77
2021/09/14 01:21:24;;;;;;;6.40;4.80;;;15.00;99.90;;;;;;4182518;28;20711;-77
2021/09/14 01:23:27;;;;;;;7.30;4.70;;;15.00;99.90;;;;;;4180026;28;20282;-77
2021/09/14 01:25:29;;;;;;;7.90;4.73;;;14.90;99.90;;;;;;4180337;28;20235;-78
2021/09/14 01:27:30;;;;;;;7.07;5.17;;;14.90;99.90;;;;;;4180972;28;20251;-77
2021/09/14 01:31:51;;;;;;;8.13;5.03;;;14.90;99.90;;;;;;4177892;28;20301;-77
2021/09/14 01:33:54;;;;;;;6.73;4.77;;;14.90;99.90;;;;;;4182209;28;20207;-77
2021/09/14 01:35:55;;;;;;;6.97;4.80;;;14.90;99.90;;;;;;4186685;28;20213;-77
2021/09/14 01:37:57;;;;;;;7.57;5.00;;;14.80;99.90;;;;;;4167723;28;20216;-78
2021/09/14 01:40:00;;;;;;;6.33;4.83;;;14.90;99.90;;;;;;4177193;28;20250;-79
2021/09/14 01:42:02;;;;;;;6.77;4.63;;;14.90;99.90;;;;;;4177625;28;20235;-77
2021/09/14 01:44:04;;;;;;;6.40;4.90;;;14.90;99.90;;;;;;4180832;28;20216;-77
2021/09/14 01:46:06;;;;;;;7.10;4.97;;;14.90;99.90;;;;;;4180634;28;20212;-77
2021/09/14 01:48:11;;;;;;;7.17;5.03;;;14.80;99.90;;;;;;4180883;28;20265;-74
2021/09/14 01:50:17;;;;;;;6.27;4.93;;;14.80;99.90;;;;;;4182216;28;20636;-76
2021/09/14 01:52:19;;;;;;;7.60;4.50;;;14.80;99.90;;;;;;4179840;28;20254;-77
2021/09/14 01:54:21;;;;;;;7.47;5.10;;;14.80;99.90;;;;;;4185586;28;20207;-77
2021/09/14 01:56:24;;;;;;;9.13;5.20;;;14.80;99.90;;;;;;4181629;28;20294;-77
2021/09/14 01:58:26;;;;;;;6.03;5.10;;;14.80;99.90;;;;;;4177375;28;20215;-77
2021/09/14 02:00:30;;;;;;;7.70;4.70;;;14.70;99.90;;;;;;4181316;28;20224;-77
2021/09/14 02:02:45;;;;;;;6.10;4.57;;;14.70;99.90;;;;;;4180293;28;20238;-76
2021/09/14 02:04:51;;;;;;;8.17;4.63;;;14.70;99.90;;;;;;4178436;28;20220;-77
2021/09/14 02:23:56;;;;;;;6.27;4.77;;;14.60;99.90;;;;;;4197728;22;20241;-77
2021/09/14 02:42:37;;;;;;;6.40;4.93;;;14.40;99.90;;;;;;4147336;28;20287;-77
2021/09/14 02:45:00;;;;;;;6.00;4.83;;;14.40;99.90;;;;;;4156341;28;20263;-77
2021/09/14 02:58:49;;;;;;;5.60;4.50;;;14.30;99.90;;;;;;4203099;28;20588;-77
2021/09/14 03:00:51;;;;;;;7.40;5.17;;;14.30;99.90;;;;;;4196960;28;20206;-77
2021/09/14 03:02:53;;;;;;;6.73;4.93;;;14.30;99.90;;;;;;4187740;28;20238;-76
2021/09/14 03:04:54;;;;;;;7.20;4.57;;;14.30;99.90;;;;;;4177370;28;20219;-76
2021/09/14 03:06:56;;;;;;;7.50;5.27;;;14.30;99.90;;;;;;4174262;28;20230;-77
2021/09/14 03:08:58;;;;;;;6.40;4.80;;;14.30;99.90;;;;;;4176780;28;20215;-77
2021/09/14 03:11:05;;;;;;;7.23;4.83;;;14.20;99.90;;;;;;4178300;28;20215;-79
2021/09/14 03:13:07;;;;;;;9.33;5.40;;;14.20;99.90;;;;;;4177116;28;20707;-78
2021/09/14 03:15:13;;;;;;;8.83;4.57;;;14.20;99.90;;;;;;4172335;28;20231;-78
2021/09/14 03:17:15;;;;;;;6.43;4.90;;;14.20;99.90;;;;;;4178958;28;20315;-78
2021/09/14 03:19:16;;;;;;;5.70;4.27;;;14.20;99.90;;;;;;4177703;28;20219;-79
2021/09/14 03:21:18;;;;;;;6.13;4.50;;;14.20;99.90;;;;;;4177318;28;20261;-78
2021/09/14 03:23:20;;;;;;;6.17;4.47;;;14.20;99.90;;;;;;4177370;28;20231;-78
2021/09/14 03:25:22;;;;;;;5.77;4.43;;;14.10;99.90;;;;;;4174193;28;20264;-79
2021/09/14 03:27:24;;;;;;;5.90;4.40;;;14.10;99.90;;;;;;4177285;28;20399;-78
2021/09/14 03:29:26;;;;;;;7.93;5.17;;;14.10;99.90;;;;;;4175652;28;20234;-79
2021/09/14 03:31:29;;;;;;;6.10;4.73;;;14.20;99.90;;;;;;4172064;28;20208;-79
2021/09/14 03:33:31;;;;;;;8.50;5.03;;;14.10;99.90;;;;;;4172918;28;20227;-78
2021/09/14 03:35:32;;;;;;;6.67;4.70;;;14.10;99.90;;;;;;4175951;28;20212;-78
2021/09/14 03:37:34;;;;;;;6.07;4.33;;;14.10;99.90;;;;;;4177200;28;20285;-79
2021/09/14 03:39:36;;;;;;;5.83;4.30;;;14.10;99.90;;;;;;4176548;28;20207;-79
2021/09/14 03:41:37;;;;;;;8.10;4.80;;;14.10;99.90;;;;;;4175659;28;20253;-79
2021/09/14 03:43:39;;;;;;;6.07;4.63;;;14.10;99.90;;;;;;4175474;28;20728;-79
2021/09/14 03:45:42;;;;;;;6.60;4.13;;;14.00;99.90;;;;;;4175494;28;20215;-78
2021/09/14 03:47:45;;;;;;;7.13;5.27;;;14.10;99.90;;;;;;4176268;28;20651;-78
2021/09/14 03:49:50;;;;;;;6.40;4.47;;;14.00;99.90;;;;;;4177480;28;20589;-77
2021/09/14 03:51:52;;;;;;;6.33;4.73;;;14.00;99.90;;;;;;4174989;28;20214;-74
2021/09/14 03:53:53;;;;;;;6.73;4.70;;;14.00;99.90;;;;;;4176341;28;20229;-77
2021/09/14 03:55:55;;;;;;;7.13;5.00;;;14.00;99.90;;;;;;4176681;28;20227;-77
2021/09/14 03:57:57;;;;;;;7.53;4.57;;;14.00;99.90;;;;;;4177354;28;20328;-76
2021/09/14 03:59:58;;;;;;;7.40;5.07;;;14.00;99.90;;;;;;4170534;28;20261;-76
2021/09/14 04:02:00;;;;;;;7.50;4.60;;;14.00;99.90;;;;;;4176729;28;20242;-76
2021/09/14 04:04:10;;;;;;;6.33;4.80;;;14.00;99.90;;;;;;4176829;28;20246;-76
2021/09/14 04:08:53;;;;;;;7.60;5.30;;;14.00;99.90;;;;;;4166752;28;20250;-76
2021/09/14 04:10:56;;;;;;;7.40;5.30;;;14.00;99.90;;;;;;4165995;28;20218;-76
2021/09/14 04:12:58;;;;;;;7.17;5.00;;;14.00;99.90;;;;;;4166100;28;20261;-76
2021/09/14 04:15:00;;;;;;;6.67;4.83;;;14.00;99.90;;;;;;4162429;28;20203;-76
2021/09/14 04:17:02;;;;;;;7.83;4.80;;;14.00;99.90;;;;;;4164723;28;20577;-77
2021/09/14 04:19:05;;;;;;;7.23;5.20;;;13.90;99.90;;;;;;4165358;28;20227;-76
2021/09/14 04:21:07;;;;;;;8.20;5.23;;;14.00;99.90;;;;;;4165187;28;20215;-76
2021/09/14 04:23:09;;;;;;;6.60;4.73;;;14.00;99.90;;;;;;4165260;28;20227;-77
2021/09/14 04:25:11;;;;;;;7.63;5.00;;;14.00;99.90;;;;;;4163942;28;20611;-76
2021/09/14 04:27:12;;;;;;;6.63;5.00;;;13.90;99.90;;;;;;4158123;28;20669;-76
2021/09/14 04:29:14;;;;;;;6.40;5.13;;;13.90;99.90;;;;;;4157682;28;20566;-77
2021/09/14 04:31:16;;;;;;;8.07;5.23;;;13.90;99.90;;;;;;4163194;28;20627;-77
2021/09/14 04:33:18;;;;;;;9.93;5.30;;;14.00;99.90;;;;;;4167348;28;20595;-76
2021/09/14 04:35:21;;;;;;;7.20;5.30;;;14.00;99.90;;;;;;4164652;28;20213;-76
2021/09/14 04:37:23;;;;;;;7.33;5.63;;;14.00;99.90;;;;;;4165283;28;20257;-76
2021/09/14 04:39:25;;;;;;;7.57;5.47;;;14.00;99.90;;;;;;4164811;28;20220;-77
2021/09/14 04:41:26;;;;;;;7.93;5.33;;;14.00;99.90;;;;;;4164591;28;20216;-76
2021/09/14 04:43:28;;;;;;;9.13;6.07;;;14.00;99.90;;;;;;4149587;28;20255;-76
2021/09/14 04:45:30;;;;;;;9.17;5.47;;;14.00;99.90;;;;;;4155624;28;20257;-77
2021/09/14 04:47:33;;;;;;;7.57;5.50;;;14.00;99.90;;;;;;4163470;28;20204;-76
2021/09/14 04:49:35;;;;;;;6.60;5.27;;;14.10;99.90;;;;;;4164218;28;20565;-77
2021/09/14 04:51:38;;;;;;;11.10;5.80;;;14.00;99.90;;;;;;4160353;28;20215;-76
2021/09/14 04:53:39;;;;;;;8.97;5.73;;;14.00;99.90;;;;;;4163207;28;20289;-78
2021/09/14 04:55:41;;;;;;;8.03;5.67;;;14.00;99.90;;;;;;4164930;28;20691;-77
2021/09/14 04:57:43;;;;;;;9.17;5.77;;;14.00;99.90;;;;;;4163496;28;20227;-77
2021/09/14 04:59:45;;;;;;;9.33;5.70;;;14.00;99.90;;;;;;4164560;28;20289;-76
2021/09/14 05:01:46;;;;;;;8.63;5.93;;;14.00;99.90;;;;;;4163254;28;20208;-76
2021/09/14 05:03:49;;;;;;;11.27;5.80;;;14.00;99.90;;;;;;4148109;28;20236;-77
2021/09/14 05:05:52;;;;;;;9.53;5.87;;;14.00;99.90;;;;;;4156774;28;20648;-77
2021/09/14 05:07:55;;;;;;;10.93;6.13;;;14.00;99.90;;;;;;4164905;28;20306;-77
2021/09/14 05:09:57;;;;;;;9.40;5.87;;;14.00;99.90;;;;;;4163721;28;20273;-76
2021/09/14 05:11:58;;;;;;;8.43;6.50;;;14.00;99.90;;;;;;4162912;28;20238;-77
2021/09/14 05:14:00;;;;;;;11.00;6.73;;;14.00;99.90;;;;;;4163497;28;20227;-77
2021/09/14 05:16:02;;;;;;;9.13;6.30;;;14.00;99.90;;;;;;4164195;28;20242;-76
2021/09/14 05:18:10;;;;;;;8.77;6.57;;;14.00;99.90;;;;;;4159424;28;20227;-77
2021/09/14 05:20:14;;;;;;;10.37;6.57;;;14.00;99.90;;;;;;4160894;28;20580;-78
2021/09/14 05:22:19;;;;;;;10.63;6.57;;;14.00;99.90;;;;;;4162502;28;20319;-76
2021/09/14 05:24:22;;;;;;;10.20;6.50;;;14.00;99.90;;;;;;4160610;28;20203;-76
2021/09/14 05:26:26;;;;;;;14.80;7.27;;;14.00;99.90;;;;;;4163457;28;20210;-78
2021/09/14 05:28:28;;;;;;;10.40;6.30;;;14.00;99.90;;;;;;4158470;28;20553;-76
2021/09/14 05:30:29;;;;;;;9.77;6.20;;;14.00;99.90;;;;;;4163719;28;20200;-76
2021/09/14 05:32:31;;;;;;;11.50;6.30;;;14.00;99.90;;;;;;4153120;28;20262;-77
2021/09/14 05:34:33;;;;;;;8.87;6.20;;;14.00;99.90;;;;;;4152723;28;20204;-77
2021/09/14 05:36:35;;;;;;;10.27;6.50;;;14.10;99.90;;;;;;4157339;28;21255;-77
2021/09/14 05:38:37;;;;;;;11.57;7.27;;;14.10;99.90;;;;;;4154390;28;20581;-77
2021/09/14 05:40:40;;;;;;;12.70;6.93;;;14.00;99.90;;;;;;4162019;28;20203;-76
2021/09/14 05:42:41;;;;;;;10.37;6.77;;;14.00;99.90;;;;;;4161199;28;20654;-76
2021/09/14 05:44:43;;;;;;;9.40;6.93;;;14.00;99.90;;;;;;4162195;28;20231;-76
2021/09/14 05:46:45;;;;;;;13.97;7.20;;;14.00;99.90;;;;;;4162248;28;20640;-77
2021/09/14 05:48:46;;;;;;;10.47;7.57;;;14.10;99.90;;;;;;4163229;28;20285;-77
2021/09/14 05:50:48;;;;;;;10.17;7.20;;;14.00;99.90;;;;;;4162157;28;20257;-77
2021/09/14 05:52:50;;;;;;;13.63;7.53;;;14.00;99.90;;;;;;4160124;28;20227;-76
2021/09/14 05:54:51;;;;;;;11.40;7.40;;;14.10;99.90;;;;;;4159071;28;20628;-76
2021/09/14 05:56:57;;;;;;;11.60;7.23;;;14.10;99.90;;;;;;4162571;28;20677;-76
2021/09/14 05:59:03;;;;;;;11.27;6.87;;;14.10;99.90;;;;;;4163340;28;20227;-76
2021/09/14 06:01:05;;;;;;;10.23;7.30;;;14.10;99.90;;;;;;4163318;28;20241;-78
2021/09/14 06:03:07;;;;;;;11.77;7.87;;;14.10;99.90;;;;;;4159222;28;20239;-77
2021/09/14 06:05:09;;;;;;;11.57;7.70;;;14.10;99.90;;;;;;4161476;28;20216;-78
2021/09/14 06:07:11;;;;;;;12.00;8.03;;;14.10;99.90;;;;;;4162653;28;20207;-78
2021/09/14 06:09:13;;;;;;;12.47;7.90;;;14.10;99.90;;;;;;4162936;28;20196;-78
2021/09/14 06:11:14;;;;;;;12.83;8.27;;;14.10;99.90;;;;;;4159275;28;20211;-77
2021/09/14 06:13:17;;;;;;;12.60;8.03;;;14.10;99.90;;;;;;4163716;28;20266;-77
2021/09/14 06:15:19;;;;;;;12.30;8.27;;;14.10;99.90;;;;;;4162113;28;20688;-77
2021/09/14 06:17:21;;;;;;;11.60;8.43;;;14.20;99.90;;;;;;4163141;28;20200;-76
2021/09/14 06:19:23;;;;;;;13.47;8.80;;;14.20;99.90;;;;;;4160663;28;20230;-76
2021/09/14 06:21:25;;;;;;;13.00;8.90;;;14.20;99.90;;;;;;4162249;28;20204;-76
2021/09/14 06:25:44;;;;;;;14.20;9.00;;;14.20;99.90;;;;;;4163559;28;20211;-77
2021/09/14 06:27:45;;;;;;;14.30;9.27;;;14.20;99.90;;;;;;4164726;28;20643;-78
2021/09/14 06:29:48;;;;;;;17.13;10.07;;;14.30;99.90;;;;;;4159216;28;20207;-76
2021/09/14 06:31:50;;;;;;;15.70;10.27;;;14.30;99.90;;;;;;4159210;28;20253;-77
2021/09/14 06:33:52;;;;;;;15.83;10.27;;;14.30;99.90;;;;;;4163040;28;20223;-77
2021/09/14 06:35:53;;;;;;;14.83;11.00;;;14.30;99.90;;;;;;4160191;28;20223;-77
2021/09/14 06:37:55;;;;;;;17.50;11.10;;;14.30;99.90;;;;;;4159069;28;20238;-76
2021/09/14 06:39:57;;;;;;;15.63;10.90;;;14.40;99.90;;;;;;4162132;28;20676;-77
2021/09/14 06:41:59;;;;;;;17.50;11.40;;;14.40;99.90;;;;;;4163435;28;20200;-76
2021/09/14 06:44:00;;;;;;;20.33;11.63;;;14.50;99.90;;;;;;4159793;28;20296;-77
2021/09/14 06:46:03;;;;;;;15.13;11.17;;;14.40;99.90;;;;;;4158637;28;20654;-77
2021/09/14 06:48:05;;;;;;;16.43;11.27;;;14.50;99.90;;;;;;4161748;28;20589;-77
2021/09/14 06:50:08;;;;;;;16.67;10.63;;;14.50;99.90;;;;;;4159941;28;20658;-77
2021/09/14 06:52:09;;;;;;;16.87;11.43;;;14.50;99.90;;;;;;4160213;28;20654;-77
2021/09/14 06:54:11;;;;;;;16.57;11.60;;;14.50;99.90;;;;;;4163118;28;20273;-76
2021/09/14 06:56:13;;;;;;;16.93;11.83;;;14.50;99.90;;;;;;4159649;28;20212;-77
2021/09/14 06:58:15;;;;;;;17.43;11.60;;;14.60;99.90;;;;;;4159125;28;20226;-76
2021/09/14 07:00:17;;;;;;;18.93;12.00;;;14.60;99.90;;;;;;4162119;28;20213;-77
2021/09/14 07:02:20;;;;;;;15.77;11.33;;;14.60;99.90;;;;;;4162785;28;20629;-78
2021/09/14 07:04:21;;;;;;;21.37;12.00;;;14.70;99.90;;;;;;4162687;28;20213;-77
2021/09/14 07:06:23;;;;;;;19.70;11.73;;;14.70;99.90;;;;;;4159509;28;20237;-77
2021/09/14 07:08:25;;;;;;;19.23;11.83;;;14.70;99.90;;;;;;4162198;28;20251;-77
2021/09/14 07:10:27;;;;;;;19.77;12.03;;;14.80;99.90;;;;;;4162255;28;20274;-78
2021/09/14 07:12:29;;;;;;;17.40;11.83;;;14.80;99.90;;;;;;4160234;28;20280;-77
2021/09/14 07:14:33;;;;;;;16.13;11.43;;;14.80;99.90;;;;;;4159794;28;20216;-77
2021/09/14 07:16:35;;;;;;;14.47;10.90;;;14.80;99.90;;;;;;4162254;28;20269;-77
2021/09/14 07:18:40;;;;;;;16.77;11.80;;;14.90;99.90;;;;;;4162647;28;20222;-76
2021/09/14 07:20:42;;;;;;;14.13;11.00;;;14.90;99.90;;;;;;4157507;28;20223;-76
2021/09/14 07:22:44;;;;;;;14.77;11.17;;;14.90;99.90;;;;;;4162710;28;20229;-76
2021/09/14 07:24:46;;;;;;;15.53;11.47;;;14.90;99.90;;;;;;4161219;28;20609;-77
2021/09/14 07:26:48;;;;;;;17.07;12.07;;;15.00;99.90;;;;;;4161312;28;20227;-77
2021/09/14 07:28:49;;;;;;;19.50;12.37;;;15.00;99.90;;;;;;4162558;28;20202;-77
2021/09/14 07:30:51;;;;;;;18.07;12.27;;;15.00;99.90;;;;;;4162097;28;20210;-78
2021/09/14 07:32:55;;;;;;;18.37;12.20;;;15.10;99.90;;;;;;4159992;28;20230;-79
2021/09/14 07:35:13;;;;;;;17.67;12.87;;;15.10;99.90;;;;;;4162374;28;20296;-77
2021/09/14 07:37:15;;;;;;;18.63;12.57;;;15.20;99.90;;;;;;4157944;28;20209;-77
2021/09/14 07:39:17;;;;;;;21.47;13.37;;;15.20;99.90;;;;;;4160557;28;20229;-77
2021/09/14 07:41:18;;;;;;;18.10;12.70;;;15.30;99.90;;;;;;4161203;28;20211;-78
2021/09/14 07:43:20;;;;;;;17.13;12.83;;;15.30;99.90;;;;;;4157569;28;20231;-77
2021/09/14 07:45:25;;;;;;;17.03;13.20;;;15.30;99.90;;;;;;4158331;28;20206;-77
2021/09/14 07:47:31;;;;;;;20.20;13.43;;;15.40;99.90;;;;;;4157506;28;20207;-75
2021/09/14 07:49:34;;;;;;;17.97;13.13;;;15.40;99.90;;;;;;4158707;28;20214;-77
2021/09/14 07:51:37;;;;;;;17.77;13.13;;;15.50;99.90;;;;;;4160800;28;20221;-74
2021/09/14 07:53:38;;;;;;;17.00;12.73;;;15.60;99.90;;;;;;4160643;28;20233;-75
2021/09/14 07:55:40;;;;;;;17.10;13.10;;;15.60;99.90;;;;;;4159230;28;20214;-75
2021/09/14 07:57:42;;;;;;;19.23;13.23;;;15.60;99.90;;;;;;4160115;28;20592;-75
2021/09/14 07:59:44;;;;;;;17.27;13.23;;;15.70;99.90;;;;;;4160844;28;20241;-75
2021/09/14 08:01:48;;;;;;;19.63;13.60;;;15.70;99.90;;;;;;4159468;28;20215;-74
2021/09/14 08:03:49;;;;;;;18.10;12.93;;;15.80;99.90;;;;;;4160736;28;20289;-74
2021/09/14 08:05:51;;;;;;;17.83;12.97;;;15.90;99.90;;;;;;4155494;28;20253;-75
2021/09/14 08:07:54;;;;;;;17.70;12.90;;;15.90;99.90;;;;;;4158927;28;20211;-75
2021/09/14 08:09:56;;;;;;;17.90;12.83;;;15.90;99.90;;;;;;4157506;28;20452;-74
2021/09/14 08:12:01;;;;;;;16.07;12.27;;;16.00;99.90;;;;;;4159350;28;20258;-75
2021/09/14 08:14:03;;;;;;;16.43;12.13;;;16.10;99.90;;;;;;4160983;28;20243;-75
2021/09/14 08:16:05;;;;;;;14.77;11.63;;;16.10;99.90;;;;;;4158455;28;20215;-74
2021/09/14 08:18:07;;;;;;;15.07;12.07;;;16.20;99.90;;;;;;4161171;28;20711;-75
2021/09/14 08:20:09;;;;;;;18.43;13.00;;;16.30;99.90;;;;;;4158686;28;20266;-75
2021/09/14 08:22:12;;;;;;;16.83;12.73;;;16.30;99.90;;;;;;4161627;28;20223;-75
2021/09/14 08:24:16;;;;;;;17.93;12.27;;;16.30;99.90;;;;;;4160300;28;20771;-75
2021/09/14 08:26:17;;;;;;;15.77;12.33;;;16.40;99.90;;;;;;4161060;28;20273;-75
2021/09/14 08:28:22;;;;;;;16.80;11.97;;;16.50;99.90;;;;;;4161174;28;20668;-73
2021/09/14 08:30:24;;;;;;;15.87;12.37;;;16.50;99.90;;;;;;4160281;28;20218;-74
2021/09/14 08:32:26;;;;;;;15.13;11.87;;;16.60;99.90;;;;;;4152125;28;20223;-73
2021/09/14 08:34:27;;;;;;;16.60;11.80;;;16.70;99.90;;;;;;4159567;28;20219;-75
2021/09/14 08:36:29;;;;;;;15.00;11.40;;;16.70;99.90;;;;;;4155329;28;20630;-75
2021/09/14 08:38:31;;;;;;;15.53;11.30;;;16.80;99.90;;;;;;4160927;28;20661;-75
2021/09/14 08:40:34;;;;;;;15.13;11.83;;;16.90;99.90;;;;;;4151868;28;20310;-78
2021/09/14 08:42:38;;;;;;;18.90;12.57;;;16.90;99.90;;;;;;4159683;28;20280;-77
2021/09/14 08:44:43;;;;;;;16.87;12.87;;;17.00;99.90;;;;;;4156259;28;20673;-76
2021/09/14 08:46:44;;;;;;;16.33;13.33;;;17.10;99.90;;;;;;4157602;28;22278;-76
2021/09/14 08:48:47;;;;;;;16.13;12.70;;;17.20;99.90;;;;;;4151540;28;20601;-76
2021/09/14 08:50:49;;;;;;;17.40;12.67;;;17.30;99.90;;;;;;4155981;28;20210;-74
2021/09/14 08:52:51;;;;;;;16.07;12.60;;;17.40;99.90;;;;;;4158102;28;20237;-76
2021/09/14 08:54:53;;;;;;;16.73;12.27;;;17.30;99.90;;;;;;4152245;28;20209;-74
2021/09/14 08:56:56;;;;;;;15.60;12.63;;;17.50;99.90;;;;;;4152598;28;20740;-75
2021/09/14 08:58:59;;;;;;;14.83;11.80;;;17.50;99.90;;;;;;4160048;28;20209;-75
2021/09/14 09:01:00;;;;;;;17.30;12.43;;;17.60;99.90;;;;;;4159141;28;20283;-74
2021/09/14 09:03:03;;;;;;;14.67;12.00;;;17.70;99.90;;;;;;4156551;28;20294;-77
2021/09/14 09:05:06;;;;;;;15.17;12.07;;;17.80;99.90;;;;;;4153225;28;20287;-76
2021/09/14 09:07:08;;;;;;;19.23;13.50;;;17.80;99.90;;;;;;4157567;28;20218;-76
2021/09/14 09:09:11;;;;;;;24.03;17.27;;;17.90;99.90;;;;;;4159893;28;20902;-77
2021/09/14 09:11:14;;;;;;;25.57;17.53;;;18.00;99.90;;;;;;4191880;22;20236;-75
2021/09/14 09:13:17;;;;;;;24.33;17.30;;;18.00;99.90;;;;;;4172883;28;20651;-75
2021/09/14 09:15:27;;;;;;;22.73;15.47;;;18.20;99.90;;;;;;4163433;28;20227;-75
2021/09/14 09:17:29;;;;;;;19.80;14.30;;;18.20;99.90;;;;;;4175255;28;20367;-75
2021/09/14 09:19:32;;;;;;;15.50;12.03;;;18.30;99.90;;;;;;4175413;28;20663;-74
2021/09/14 09:21:37;;;;;;;16.40;11.73;;;18.40;99.90;;;;;;4165570;28;20811;-75
2021/09/14 09:23:39;;;;;;;13.17;9.87;;;18.40;99.90;;;;;;4154087;28;20220;-73
2021/09/14 09:25:41;;;;;;;13.97;10.43;;;18.60;99.90;;;;;;4149946;28;20213;-75
2021/09/14 09:27:42;;;;;;;12.43;9.73;;;18.60;99.90;;;;;;4155831;28;20277;-76
2021/09/14 09:29:56;;;;;;;13.93;9.80;;;18.70;99.90;;;;;;4154180;28;20216;-74
2021/09/14 09:31:58;;;;;;;13.50;9.60;;;18.80;99.90;;;;;;4153781;28;20234;-76
2021/09/14 09:34:05;;;;;;;11.03;9.23;;;18.90;99.90;;;;;;4156868;28;20659;-76
2021/09/14 09:36:08;;;;;;;11.73;8.03;;;19.00;99.90;;;;;;4158617;28;20272;-79
2021/09/14 09:38:09;;;;;;;12.17;8.67;;;19.00;99.90;;;;;;4160725;28;20211;-79
2021/09/14 09:40:25;;;;;;;10.13;8.40;;;19.20;99.90;;;;;;4155646;28;20243;-76
2021/09/14 09:42:30;;;;;;;10.83;8.47;;;19.20;99.90;;;;;;4157183;28;20225;-79
2021/09/14 09:44:32;;;;;;;9.17;7.97;;;19.30;99.90;;;;;;4160076;28;20672;-77
2021/09/14 09:46:36;;;;;;;9.93;8.33;;;19.40;99.90;;;;;;4156284;28;20743;-78
2021/09/14 09:48:39;;;;;;;10.07;8.07;;;19.50;99.90;;;;;;4157219;28;20203;-78
2021/09/14 09:50:41;;;;;;;8.10;7.17;;;19.60;99.90;;;;;;4159327;28;20281;-78
2021/09/14 09:52:44;;;;;;;10.30;8.13;;;19.70;99.90;;;;;;4158184;28;20841;-78
2021/09/14 09:54:46;;;;;;;10.37;8.17;;;19.80;99.90;;;;;;4159367;28;20262;-78
2021/09/14 09:56:50;;;;;;;10.27;8.40;;;19.90;99.90;;;;;;4159785;28;20286;-78
2021/09/14 09:58:52;;;;;;;10.40;8.63;;;20.00;99.90;;;;;;4160385;28;20215;-78
2021/09/14 10:00:58;;;;;;;8.47;7.53;;;20.10;99.90;;;;;;4150358;28;20615;-77
2021/09/14 10:03:06;;;;;;;8.93;8.00;;;20.20;99.90;;;;;;4158014;28;20217;-78
2021/09/14 10:05:10;;;;;;;8.63;7.73;;;20.30;99.90;;;;;;4151142;28;20218;-78
2021/09/14 10:07:13;;;;;;;9.83;7.93;;;20.40;99.90;;;;;;4149833;28;20213;-78
2021/09/14 10:09:15;;;;;;;10.83;8.10;;;20.50;99.90;;;;;;4154388;28;20215;-79
2021/09/14 10:11:25;;;;;;;10.03;7.53;;;20.50;99.90;;;;;;4155678;28;20240;-77
2021/09/14 10:13:31;;;;;;;8.43;7.13;;;20.60;99.90;;;;;;4160681;28;20739;-81
2021/09/14 10:15:40;;;;;;;8.70;7.60;;;20.70;99.90;;;;;;4160573;28;20560;-79
2021/09/14 10:17:50;;;;;;;9.40;7.67;;;20.90;99.90;;;;;;4154717;28;20710;-78
2021/09/14 10:19:53;;;;;;;8.17;7.07;;;20.90;99.90;;;;;;4144775;28;20552;-78
2021/09/14 10:22:02;;;;;;;8.53;6.83;;;21.00;99.90;;;;;;4161442;28;20781;-79
2021/09/14 10:24:04;;;;;;;8.67;6.97;;;21.10;99.90;;;;;;4165187;28;20217;-81
2021/09/14 10:26:08;;;;;;;8.17;7.23;;;21.20;99.90;;;;;;4163249;28;20218;-81
2021/09/14 10:28:12;;;;;;;8.77;6.93;;;21.30;99.90;;;;;;4159477;28;20307;-82
2021/09/14 10:30:15;;;;;;;7.43;6.63;;;21.40;99.90;;;;;;4163002;28;20642;-82
2021/09/14 10:32:17;;;;;;;8.13;6.67;;;21.50;99.90;;;;;;4154972;28;20218;-80
2021/09/14 10:34:18;;;;;;;9.03;6.47;;;21.50;99.90;;;;;;4167026;28;20213;-81
2021/09/14 10:36:21;;;;;;;9.30;6.30;;;21.60;99.90;;;;;;4167924;28;20244;-83
2021/09/14 10:38:25;;;;;;;7.60;6.50;;;21.70;99.90;;;;;;4166353;28;20236;-80
2021/09/14 10:40:38;;;;;;;7.23;6.40;;;21.80;99.90;;;;;;4161807;28;20238;-79
2021/09/14 10:42:42;;;;;;;7.53;6.40;;;21.90;99.90;;;;;;4167334;28;20216;-80
2021/09/14 10:44:45;;;;;;;8.43;6.73;;;22.00;99.90;;;;;;4161600;28;20282;-80
2021/09/14 10:46:46;;;;;;;7.23;6.20;;;22.10;99.90;;;;;;4156839;28;20218;-81
2021/09/14 10:48:49;;;;;;;8.90;6.53;;;22.20;99.90;;;;;;4167965;28;20222;-80
2021/09/14 10:50:52;;;;;;;7.33;6.13;;;22.30;99.90;;;;;;4167877;28;20758;-80
2021/09/14 10:52:59;;;;;;;9.10;6.80;;;22.40;99.90;;;;;;4166403;28;20276;-80
2021/09/14 10:55:09;;;;;;;9.80;6.40;;;22.50;99.90;;;;;;4164571;28;20893;-81
2021/09/14 10:57:12;;;;;;;7.43;6.47;;;22.60;99.90;;;;;;4164770;28;20211;-80
2021/09/14 10:59:17;;;;;;;8.10;6.30;;;22.70;99.70;;;;;;4160780;28;20282;-80
2021/09/14 11:01:23;;;;;;;6.83;5.70;;;22.80;99.90;;;;;;4162451;28;20239;-80
2021/09/14 11:03:25;;;;;;;6.63;5.93;;;22.90;99.90;;;;;;4160251;28;20621;-80
2021/09/14 11:05:27;;;;;;;7.17;5.90;;;23.00;99.70;;;;;;4162042;28;20221;-80
2021/09/14 11:07:30;;;;;;;7.67;5.97;;;23.20;99.90;;;;;;4151270;28;20215;-80
2021/09/14 11:09:33;;;;;;;6.53;5.80;;;23.30;99.20;;;;;;4156865;28;20211;-80
2021/09/14 11:11:35;;;;;;;6.17;5.37;;;23.40;98.50;;;;;;4161803;28;20304;-82
2021/09/14 11:13:39;;;;;;;5.93;5.33;;;23.50;98.20;;;;;;4161775;28;20215;-80
2021/09/14 11:15:40;;;;;;;6.87;5.77;;;23.70;97.90;;;;;;4158930;28;20242;-79
2021/09/14 11:17:47;;;;;;;6.60;5.90;;;23.80;97.20;;;;;;4160519;28;20221;-81
2021/09/14 11:19:51;;;;;;;6.37;5.67;;;24.00;96.60;;;;;;4162460;28;20211;-79
2021/09/14 11:21:53;;;;;;;7.83;5.37;;;24.10;96.30;;;;;;4157756;28;20230;-80
2021/09/14 11:23:54;;;;;;;6.93;5.83;;;24.30;94.90;;;;;;4164987;28;20218;-80
2021/09/14 11:25:58;;;;;;;6.90;5.90;;;24.50;93.90;;;;;;4162448;28;20208;-81
2021/09/14 11:28:02;;;;;;;6.57;5.53;;;24.60;93.10;;;;;;4168889;28;20211;-81